Time;durP1;ratioP1;P1;durP2;ratioP2;P2;SDS_P1;SDS_P2;PMS_P1;PMS_P2;Temp;Humidity;BMP_temperature;BMP_pressure;BME280_temperature;BME280_humidity;BME280_pressure;Samples;Min_cycle;Max_cycle;Signal;HPM_P1;HPM_P2
2021/05/22 00:01:23;;;;;;;;;;;14.60;75.20;;;;;;5037645;28;94077;-68
2021/05/22 00:03:50;;;;;;;;;;;14.60;75.30;;;;;;5037540;28;92749;-68
2021/05/22 00:06:15;;;;;;;;;;;14.60;75.20;;;;;;5036999;28;92209;-68
2021/05/22 00:08:41;;;;;;;;;;;14.50;75.10;;;;;;5040561;28;92483;-69
2021/05/22 00:11:06;;;;;;;;;;;14.50;75.20;;;;;;5037118;28;92283;-69
2021/05/22 00:13:32;;;;;;;;;;;14.60;75.10;;;;;;5036675;28;92206;-69
2021/05/22 00:15:58;;;;;;;;;;;14.50;75.10;;;;;;5034878;27;93205;-69
2021/05/22 00:18:23;;;;;;;;;;;14.50;75.20;;;;;;5034436;27;92246;-69
2021/05/22 00:20:49;;;;;;;;;;;14.50;75.20;;;;;;5033363;28;93174;-69
2021/05/22 00:23:15;;;;;;;;;;;14.40;75.20;;;;;;5033368;27;93594;-68
2021/05/22 00:25:41;;;;;;;;;;;14.50;75.20;;;;;;5034810;27;93604;-68
2021/05/22 00:28:06;;;;;;;;;;;14.40;75.00;;;;;;5040221;27;93725;-69
2021/05/22 00:30:32;;;;;;;;;;;14.40;74.90;;;;;;5037056;27;92179;-69
2021/05/22 00:32:57;;;;;;;;;;;14.40;74.90;;;;;;5036607;28;93721;-68
2021/05/22 00:35:23;;;;;;;;;;;14.40;75.00;;;;;;5035170;27;94417;-69
2021/05/22 00:37:49;;;;;;;;;;;14.40;75.00;;;;;;5035580;27;91480;-69
2021/05/22 00:40:14;;;;;;;;;;;14.40;74.90;;;;;;5034439;28;92262;-69
2021/05/22 00:42:41;;;;;;;;;;;14.40;75.00;;;;;;5032707;27;92588;-68
2021/05/22 00:45:12;;;;;;;;;;;14.40;74.90;;;;;;5035197;27;93969;-68
2021/05/22 00:47:39;;;;;;;;;;;14.40;75.00;;;;;;5036282;27;92912;-69
2021/05/22 00:50:06;;;;;;;;;;;14.40;74.90;;;;;;5037490;27;93971;-69
2021/05/22 00:52:32;;;;;;;;;;;14.30;74.90;;;;;;5033654;28;92566;-69
2021/05/22 00:54:57;;;;;;;;;;;14.30;74.90;;;;;;5034174;27;94232;-68
2021/05/22 00:57:23;;;;;;;;;;;14.30;74.70;;;;;;5036067;28;92176;-69
2021/05/22 00:59:49;;;;;;;;;;;14.30;74.70;;;;;;5036783;27;92164;-68
2021/05/22 01:02:20;;;;;;;;;;;14.30;74.90;;;;;;5036063;28;92749;-69
2021/05/22 01:04:45;;;;;;;;;;;14.20;74.70;;;;;;5034705;27;93166;-69
2021/05/22 01:07:11;;;;;;;;;;;14.30;74.70;;;;;;5032829;28;92822;-69
2021/05/22 01:09:38;;;;;;;;;;;14.30;74.90;;;;;;5032340;28;94132;-68
2021/05/22 01:12:05;;;;;;;;;;;14.20;74.60;;;;;;5040136;28;92227;-69
2021/05/22 01:14:40;;;;;;;;;;;14.20;74.60;;;;;;5034786;28;93849;-69
2021/05/22 01:17:06;;;;;;;;;;;14.20;74.50;;;;;;5038868;28;92212;-68
2021/05/22 01:19:37;;;;;;;;;;;14.20;74.70;;;;;;5037978;28;94027;-68
2021/05/22 01:22:03;;;;;;;;;;;14.20;74.50;;;;;;5035534;28;94629;-69
2021/05/22 01:24:30;;;;;;;;;;;14.20;74.60;;;;;;5036469;28;93657;-69
2021/05/22 01:26:56;;;;;;;;;;;14.20;74.60;;;;;;5040029;28;92423;-69
2021/05/22 01:29:22;;;;;;;;;;;14.20;74.40;;;;;;5037764;28;94576;-69
2021/05/22 01:31:47;;;;;;;;;;;14.20;74.50;;;;;;5038209;28;92198;-69
2021/05/22 01:34:13;;;;;;;;;;;14.10;74.50;;;;;;5039611;28;93098;-69
2021/05/22 01:36:38;;;;;;;;;;;14.10;74.70;;;;;;5037980;28;92161;-69
2021/05/22 01:39:04;;;;;;;;;;;14.10;74.60;;;;;;5037309;28;93605;-69
2021/05/22 01:41:30;;;;;;;;;;;14.10;74.80;;;;;;5035597;28;94798;-69
2021/05/22 01:43:57;;;;;;;;;;;14.10;74.40;;;;;;5035714;28;92197;-68
2021/05/22 01:46:24;;;;;;;;;;;14.10;74.50;;;;;;5038243;28;92751;-69
2021/05/22 01:48:50;;;;;;;;;;;14.10;74.40;;;;;;5035579;28;94113;-69
2021/05/22 01:51:17;;;;;;;;;;;14.10;74.20;;;;;;5037742;28;92373;-69
2021/05/22 01:53:43;;;;;;;;;;;14.10;74.10;;;;;;5038659;28;92213;-69
2021/05/22 01:56:09;;;;;;;;;;;14.00;74.20;;;;;;5039689;28;94106;-69
2021/05/22 01:58:35;;;;;;;;;;;14.00;74.20;;;;;;5035391;28;93108;-68
2021/05/22 02:01:01;;;;;;;;;;;14.00;74.20;;;;;;5035007;28;92663;-69
2021/05/22 02:03:27;;;;;;;;;;;14.00;74.40;;;;;;5035395;28;92220;-69
2021/05/22 02:05:54;;;;;;;;;;;14.00;74.40;;;;;;5040107;28;93947;-69
2021/05/22 02:08:20;;;;;;;;;;;14.00;74.20;;;;;;5037795;28;93003;-69
2021/05/22 02:10:48;;;;;;;;;;;13.90;74.20;;;;;;5038293;28;92170;-69
2021/05/22 02:13:15;;;;;;;;;;;14.00;74.10;;;;;;5037213;28;93694;-69
2021/05/22 02:15:41;;;;;;;;;;;13.90;74.10;;;;;;5038971;28;93554;-69
2021/05/22 02:18:09;;;;;;;;;;;13.90;74.10;;;;;;5040435;27;92171;-69
2021/05/22 02:20:35;;;;;;;;;;;13.90;74.00;;;;;;5039598;27;92715;-68
2021/05/22 02:23:03;;;;;;;;;;;13.90;74.10;;;;;;5037412;27;93132;-68
2021/05/22 02:25:29;;;;;;;;;;;13.90;74.10;;;;;;5035431;27;93518;-69
2021/05/22 02:27:57;;;;;;;;;;;13.90;74.10;;;;;;5034596;27;92660;-69
2021/05/22 02:30:23;;;;;;;;;;;13.90;74.10;;;;;;5037865;28;92223;-69
2021/05/22 02:32:50;;;;;;;;;;;13.90;74.60;;;;;;5035821;27;92410;-69
2021/05/22 02:35:16;;;;;;;;;;;13.90;74.10;;;;;;5038074;27;93654;-69
2021/05/22 02:37:42;;;;;;;;;;;13.80;74.10;;;;;;5041292;27;92230;-69
2021/05/22 02:40:15;;;;;;;;;;;13.80;74.00;;;;;;5037672;28;91993;-68
2021/05/22 02:42:43;;;;;;;;;;;13.80;73.90;;;;;;5035388;27;92559;-69
2021/05/22 02:45:09;;;;;;;;;;;13.80;74.00;;;;;;5038585;27;92479;-69
2021/05/22 02:47:35;;;;;;;;;;;13.70;74.00;;;;;;5035383;27;93571;-69
2021/05/22 02:50:06;;;;;;;;;;;13.80;74.00;;;;;;5035231;27;92165;-69
2021/05/22 02:52:32;;;;;;;;;;;13.70;73.90;;;;;;5035183;27;93497;-69
2021/05/22 02:54:59;;;;;;;;;;;13.70;73.90;;;;;;5035483;27;93929;-69
2021/05/22 02:57:25;;;;;;;;;;;13.70;74.00;;;;;;5038367;27;92215;-69
2021/05/22 02:59:51;;;;;;;;;;;13.70;73.90;;;;;;5039344;27;93475;-69
2021/05/22 03:02:17;;;;;;;;;;;13.70;73.90;;;;;;5035316;27;92272;-69
2021/05/22 03:04:43;;;;;;;;;;;13.70;73.90;;;;;;5035779;27;94026;-69
2021/05/22 03:07:09;;;;;;;;;;;13.70;73.90;;;;;;5033438;27;93399;-69
2021/05/22 03:09:34;;;;;;;;;;;13.70;73.90;;;;;;5037154;27;92255;-69
2021/05/22 03:12:00;;;;;;;;;;;13.70;73.90;;;;;;5036553;27;94800;-69
2021/05/22 03:14:26;;;;;;;;;;;13.60;73.80;;;;;;5037791;28;93819;-69
2021/05/22 03:16:51;;;;;;;;;;;13.60;73.90;;;;;;5037877;28;92215;-69
2021/05/22 03:19:17;;;;;;;;;;;13.60;73.80;;;;;;5038538;28;92546;-68
2021/05/22 03:21:43;;;;;;;;;;;13.60;73.70;;;;;;5041569;28;93824;-69
2021/05/22 03:24:08;;;;;;;;;;;13.60;73.80;;;;;;5038245;28;92237;-69
2021/05/22 03:26:34;;;;;;;;;;;13.60;73.80;;;;;;5036471;28;92182;-69
2021/05/22 03:29:00;;;;;;;;;;;13.60;74.40;;;;;;5036903;28;91624;-69
2021/05/22 03:31:25;;;;;;;;;;;13.60;73.80;;;;;;5036600;28;93066;-69
2021/05/22 03:33:51;;;;;;;;;;;13.60;73.80;;;;;;5035387;28;92575;-69
2021/05/22 03:36:16;;;;;;;;;;;13.50;73.80;;;;;;5034957;28;93090;-68
2021/05/22 03:38:42;;;;;;;;;;;13.50;73.80;;;;;;5034835;28;94518;-69
2021/05/22 03:41:07;;;;;;;;;;;13.50;73.80;;;;;;5034397;28;92626;-69
2021/05/22 03:43:33;;;;;;;;;;;13.50;73.80;;;;;;5037401;28;92193;-69
2021/05/22 03:45:59;;;;;;;;;;;13.50;73.70;;;;;;5034036;28;94182;-69
2021/05/22 03:48:24;;;;;;;;;;;13.50;73.70;;;;;;5035180;28;92160;-69
2021/05/22 03:50:50;;;;;;;;;;;13.50;73.60;;;;;;5035650;28;92479;-69
2021/05/22 03:53:15;;;;;;;;;;;13.50;73.80;;;;;;5034637;28;92444;-69
2021/05/22 03:55:41;;;;;;;;;;;13.50;73.60;;;;;;5033814;28;92162;-68
2021/05/22 03:58:07;;;;;;;;;;;13.50;73.70;;;;;;5033504;28;93772;-69
2021/05/22 04:00:33;;;;;;;;;;;13.40;73.70;;;;;;5032518;28;95432;-68
2021/05/22 04:02:59;;;;;;;;;;;13.50;73.70;;;;;;5034581;28;93863;-69
2021/05/22 04:05:25;;;;;;;;;;;13.40;73.70;;;;;;5040710;28;93772;-69
2021/05/22 04:07:50;;;;;;;;;;;13.40;73.60;;;;;;5037589;28;92179;-69
2021/05/22 04:10:16;;;;;;;;;;;13.40;73.70;;;;;;5035517;28;94655;-69
2021/05/22 04:12:41;;;;;;;;;;;13.40;73.60;;;;;;5035968;28;93544;-68
2021/05/22 04:15:07;;;;;;;;;;;13.40;73.50;;;;;;5037378;28;92184;-68
2021/05/22 04:17:33;;;;;;;;;;;13.40;73.60;;;;;;5037163;28;93106;-69
2021/05/22 04:19:58;;;;;;;;;;;13.40;73.70;;;;;;5035517;28;93067;-68
2021/05/22 04:22:24;;;;;;;;;;;13.30;73.80;;;;;;5037203;27;92287;-67
2021/05/22 04:24:49;;;;;;;;;;;13.40;73.60;;;;;;5039332;27;93183;-68
2021/05/22 04:27:15;;;;;;;;;;;13.40;73.80;;;;;;5037279;28;92228;-68
2021/05/22 04:29:40;;;;;;;;;;;13.40;73.70;;;;;;5037105;27;93874;-68
2021/05/22 04:32:06;;;;;;;;;;;13.40;73.70;;;;;;5037253;28;92703;-68
2021/05/22 04:34:31;;;;;;;;;;;13.40;73.60;;;;;;5037130;28;92156;-68
2021/05/22 04:36:57;;;;;;;;;;;13.40;73.60;;;;;;5035915;28;92927;-68
2021/05/22 04:39:22;;;;;;;;;;;13.40;73.60;;;;;;5035416;27;95962;-68
2021/05/22 04:41:48;;;;;;;;;;;13.30;73.60;;;;;;5038119;27;91431;-69
2021/05/22 04:44:13;;;;;;;;;;;13.40;73.60;;;;;;5036876;28;92184;-69
2021/05/22 04:46:39;;;;;;;;;;;13.30;73.50;;;;;;5038712;28;93146;-69
2021/05/22 04:49:05;;;;;;;;;;;13.30;73.70;;;;;;5033578;27;93127;-68
2021/05/22 04:51:31;;;;;;;;;;;13.30;73.80;;;;;;5033448;28;94647;-69
2021/05/22 04:54:04;;;;;;;;;;;13.30;73.80;;;;;;5032897;27;92193;-68
2021/05/22 04:56:30;;;;;;;;;;;13.30;73.80;;;;;;5036173;27;92457;-68
2021/05/22 04:58:56;;;;;;;;;;;13.30;73.90;;;;;;5035814;27;93091;-68
2021/05/22 05:01:21;;;;;;;;;;;13.30;73.80;;;;;;5035320;27;92211;-68
2021/05/22 05:03:47;;;;;;;;;;;13.30;73.70;;;;;;5034557;28;92544;-68
2021/05/22 05:06:12;;;;;;;;;;;13.30;73.70;;;;;;5033825;27;93096;-68
2021/05/22 05:08:38;;;;;;;;;;;13.30;73.80;;;;;;5035928;27;92212;-68
2021/05/22 05:11:04;;;;;;;;;;;13.30;73.90;;;;;;5032184;27;93784;-68
2021/05/22 05:13:31;;;;;;;;;;;13.20;73.90;;;;;;5034876;27;94603;-68
2021/05/22 05:15:56;;;;;;;;;;;13.30;73.90;;;;;;5034931;28;94848;-68
2021/05/22 05:18:22;;;;;;;;;;;13.30;73.80;;;;;;5033665;28;92967;-68
2021/05/22 05:20:47;;;;;;;;;;;13.30;73.80;;;;;;5033585;28;92162;-68
2021/05/22 05:23:13;;;;;;;;;;;13.20;73.80;;;;;;5032860;28;92174;-68
2021/05/22 05:25:38;;;;;;;;;;;13.20;73.90;;;;;;5031617;28;92722;-68
2021/05/22 05:28:04;;;;;;;;;;;13.30;73.90;;;;;;5033636;28;93824;-68
2021/05/22 05:30:29;;;;;;;;;;;13.20;73.90;;;;;;5039072;28;92308;-69
2021/05/22 05:32:55;;;;;;;;;;;13.20;73.90;;;;;;5032764;28;93823;-68
2021/05/22 05:35:21;;;;;;;;;;;13.20;74.00;;;;;;5031839;28;93495;-68
2021/05/22 05:37:46;;;;;;;;;;;13.20;74.00;;;;;;5033429;28;94049;-68
2021/05/22 05:40:12;;;;;;;;;;;13.20;74.00;;;;;;5037166;28;92777;-68
2021/05/22 05:42:37;;;;;;;;;;;13.20;74.00;;;;;;5036076;28;94119;-68
2021/05/22 05:45:03;;;;;;;;;;;13.20;74.10;;;;;;5034707;28;94714;-68
2021/05/22 05:47:29;;;;;;;;;;;13.20;74.10;;;;;;5033620;28;92159;-68
2021/05/22 05:49:54;;;;;;;;;;;13.20;74.10;;;;;;5032873;28;93564;-68
2021/05/22 05:52:20;;;;;;;;;;;13.20;74.10;;;;;;5035553;28;94733;-68
2021/05/22 05:54:46;;;;;;;;;;;13.20;74.30;;;;;;5033401;28;92696;-68
2021/05/22 05:57:11;;;;;;;;;;;13.20;74.20;;;;;;5031706;28;93000;-68
2021/05/22 05:59:37;;;;;;;;;;;13.20;74.30;;;;;;5032526;27;92191;-69
2021/05/22 06:02:02;;;;;;;;;;;13.20;74.30;;;;;;5034686;28;93578;-69
2021/05/22 06:04:28;;;;;;;;;;;13.30;74.20;;;;;;5035271;28;93927;-68
2021/05/22 06:06:53;;;;;;;;;;;13.30;74.30;;;;;;5038620;28;93489;-69
2021/05/22 06:09:19;;;;;;;;;;;13.30;74.40;;;;;;5039709;28;92614;-68
2021/05/22 06:11:44;;;;;;;;;;;13.30;75.00;;;;;;5038494;28;92606;-68
2021/05/22 06:14:16;;;;;;;;;;;13.30;74.30;;;;;;5042302;28;92175;-68
2021/05/22 06:16:41;;;;;;;;;;;13.30;74.40;;;;;;5037530;27;94773;-69
2021/05/22 06:19:07;;;;;;;;;;;13.30;74.40;;;;;;5036853;27;91477;-68
2021/05/22 06:21:35;;;;;;;;;;;13.30;74.40;;;;;;5035851;27;92192;-68
2021/05/22 06:24:01;;;;;;;;;;;13.40;74.50;;;;;;5034469;28;95685;-68
2021/05/22 06:26:26;;;;;;;;;;;13.30;74.60;;;;;;5037831;28;94737;-69
2021/05/22 06:28:52;;;;;;;;;;;13.20;74.80;;;;;;5039576;28;92187;-68
2021/05/22 06:31:17;;;;;;;;;;;13.20;75.60;;;;;;5038410;28;93415;-68
2021/05/22 06:33:43;;;;;;;;;;;13.20;75.20;;;;;;5040737;28;92155;-68
2021/05/22 06:36:09;;;;;;;;;;;13.10;75.30;;;;;;5036071;28;94667;-68
2021/05/22 06:38:35;;;;;;;;;;;13.10;75.30;;;;;;5035432;28;92197;-69
2021/05/22 06:41:00;;;;;;;;;;;13.10;75.50;;;;;;5034999;28;92360;-68
2021/05/22 06:43:26;;;;;;;;;;;13.00;75.50;;;;;;5035272;28;92086;-68
2021/05/22 06:48:26;;;;;;;;;;;13.00;75.70;;;;;;5035826;28;92460;-68
2021/05/22 06:50:52;;;;;;;;;;;13.00;75.80;;;;;;5035658;28;95457;-68
2021/05/22 06:53:17;;;;;;;;;;;13.00;75.90;;;;;;5038042;28;92272;-69
2021/05/22 06:55:43;;;;;;;;;;;13.00;76.00;;;;;;5039846;28;93853;-69
2021/05/22 06:58:10;;;;;;;;;;;13.00;76.00;;;;;;5036566;28;92287;-68
2021/05/22 07:00:35;;;;;;;;;;;12.90;76.10;;;;;;5034343;28;94288;-69
2021/05/22 07:03:01;;;;;;;;;;;12.90;76.10;;;;;;5034096;28;92694;-68
2021/05/22 07:05:27;;;;;;;;;;;12.90;76.10;;;;;;5034108;28;92173;-69
2021/05/22 07:07:52;;;;;;;;;;;12.90;76.20;;;;;;5036321;28;93721;-69
2021/05/22 07:10:18;;;;;;;;;;;12.90;76.20;;;;;;5032588;28;94710;-69
2021/05/22 07:12:43;;;;;;;;;;;12.90;76.20;;;;;;5034810;28;92235;-69
2021/05/22 07:15:09;;;;;;;;;;;12.90;76.30;;;;;;5035935;28;93272;-69
2021/05/22 07:17:35;;;;;;;;;;;12.90;76.30;;;;;;5037222;28;95790;-68
2021/05/22 07:20:01;;;;;;;;;;;12.90;76.50;;;;;;5033739;28;93399;-69
2021/05/22 07:22:26;;;;;;;;;;;12.90;76.50;;;;;;5033587;28;93642;-69
2021/05/22 07:24:52;;;;;;;;;;;12.90;76.50;;;;;;5034718;28;92229;-69
2021/05/22 07:27:18;;;;;;;;;;;12.90;76.50;;;;;;5033738;28;93281;-69
2021/05/22 07:29:48;;;;;;;;;;;12.90;76.60;;;;;;5037957;28;94588;-69
2021/05/22 07:32:14;;;;;;;;;;;12.90;76.60;;;;;;5038701;28;91452;-69
2021/05/22 07:34:40;;;;;;;;;;;12.90;76.60;;;;;;5038180;28;92187;-68
2021/05/22 07:37:06;;;;;;;;;;;12.90;76.50;;;;;;5037018;28;92690;-69
2021/05/22 07:39:32;;;;;;;;;;;12.90;76.50;;;;;;5039545;28;93221;-69
2021/05/22 07:41:57;;;;;;;;;;;12.90;76.50;;;;;;5037446;28;93193;-69
2021/05/22 07:44:23;;;;;;;;;;;12.90;76.50;;;;;;5037408;28;92228;-69
2021/05/22 07:46:48;;;;;;;;;;;12.90;76.50;;;;;;5036495;28;92220;-69
2021/05/22 07:49:14;;;;;;;;;;;12.90;76.50;;;;;;5035215;28;94401;-69
2021/05/22 07:51:40;;;;;;;;;;;12.90;76.60;;;;;;5035302;28;92193;-69
2021/05/22 07:54:06;;;;;;;;;;;12.90;76.60;;;;;;5035177;28;92175;-68
2021/05/22 07:56:32;;;;;;;;;;;12.90;76.70;;;;;;5034098;28;93057;-69
2021/05/22 07:58:57;;;;;;;;;;;12.90;76.60;;;;;;5033706;28;92200;-69
2021/05/22 08:01:23;;;;;;;;;;;12.90;76.80;;;;;;5036955;28;92699;-69
2021/05/22 08:03:48;;;;;;;;;;;12.90;76.80;;;;;;5037296;28;94655;-69
2021/05/22 08:06:14;;;;;;;;;;;12.90;76.70;;;;;;5038095;28;93506;-69
2021/05/22 08:08:40;;;;;;;;;;;13.00;76.80;;;;;;5037277;28;94441;-69
2021/05/22 08:11:05;;;;;;;;;;;12.90;76.80;;;;;;5036848;28;92183;-69
2021/05/22 08:13:32;;;;;;;;;;;13.00;76.80;;;;;;5036665;28;92480;-69
2021/05/22 08:15:58;;;;;;;;;;;13.00;77.00;;;;;;5035687;28;94398;-69
2021/05/22 08:18:24;;;;;;;;;;;13.00;76.90;;;;;;5036850;28;92216;-69
2021/05/22 08:20:49;;;;;;;;;;;13.00;77.00;;;;;;5036148;28;93881;-69
2021/05/22 08:23:15;;;;;;;;;;;13.00;77.00;;;;;;5038214;27;93368;-69
2021/05/22 08:25:41;;;;;;;;;;;13.00;77.00;;;;;;5035203;28;92579;-68
2021/05/22 08:28:07;;;;;;;;;;;13.00;76.90;;;;;;5033241;28;93562;-69
2021/05/22 08:30:33;;;;;;;;;;;13.00;76.90;;;;;;5035645;28;93781;-69
2021/05/22 08:32:59;;;;;;;;;;;13.00;76.90;;;;;;5037849;28;92198;-69
2021/05/22 08:35:24;;;;;;;;;;;13.00;77.10;;;;;;5036102;28;93076;-69
2021/05/22 08:37:50;;;;;;;;;;;13.00;77.20;;;;;;5037076;28;92189;-69
2021/05/22 08:40:15;;;;;;;;;;;13.00;77.00;;;;;;5036814;28;92181;-69
2021/05/22 08:42:41;;;;;;;;;;;13.00;77.20;;;;;;5039422;28;93336;-69
2021/05/22 08:45:07;;;;;;;;;;;13.00;77.30;;;;;;5036821;28;93515;-69
2021/05/22 08:47:33;;;;;;;;;;;13.00;77.40;;;;;;5035008;28;92661;-69
2021/05/22 08:49:59;;;;;;;;;;;13.00;77.60;;;;;;5034179;28;92226;-69
2021/05/22 08:52:24;;;;;;;;;;;13.00;77.50;;;;;;5032058;28;93634;-70
2021/05/22 08:54:50;;;;;;;;;;;13.00;77.50;;;;;;5032860;28;94569;-69
2021/05/22 08:57:16;;;;;;;;;;;13.00;77.40;;;;;;5032740;28;93784;-70
2021/05/22 08:59:44;;;;;;;;;;;13.10;77.80;;;;;;5037263;28;92856;-69
2021/05/22 09:02:11;;;;;;;;;;;13.10;77.90;;;;;;5032888;28;94733;-69
2021/05/22 09:04:55;;;;;;;;;;;13.10;77.80;;;;;;5035758;28;92261;-67
2021/05/22 09:07:22;;;;;;;;;;;13.10;78.40;;;;;;5034245;28;93239;-67
2021/05/22 09:09:48;;;;;;;;;;;13.10;77.90;;;;;;5032802;28;92979;-67
2021/05/22 09:12:13;;;;;;;;;;;13.10;78.20;;;;;;5035755;28;93792;-67
2021/05/22 09:14:49;;;;;;;;;;;13.20;78.40;;;;;;5036726;28;94796;-67
2021/05/22 09:17:15;;;;;;;;;;;13.10;78.10;;;;;;5035886;28;93155;-67
2021/05/22 09:19:41;;;;;;;;;;;13.20;78.50;;;;;;5035776;28;94910;-67
2021/05/22 09:22:12;;;;;;;;;;;13.10;78.40;;;;;;5034651;28;93419;-67
2021/05/22 09:24:53;;;;;;;;;;;13.20;78.70;;;;;;5034034;28;92187;-67
2021/05/22 09:27:19;;;;;;;;;;;13.20;78.40;;;;;;5035813;28;92293;-67
2021/05/22 09:29:44;;;;;;;;;;;13.20;78.50;;;;;;5032692;28;92199;-67
2021/05/22 09:32:14;;;;;;;;;;;13.20;78.80;;;;;;5032785;28;92173;-67
2021/05/22 09:34:39;;;;;;;;;;;13.20;78.30;;;;;;5033879;28;92022;-68
2021/05/22 09:37:11;;;;;;;;;;;13.30;78.50;;;;;;5036646;28;92225;-67
2021/05/22 09:39:47;;;;;;;;;;;13.20;78.40;;;;;;5037993;28;93847;-67
2021/05/22 09:42:13;;;;;;;;;;;13.20;78.80;;;;;;5039130;28;95399;-67
2021/05/22 09:44:39;;;;;;;;;;;13.30;78.50;;;;;;5040672;28;92776;-67
2021/05/22 09:47:04;;;;;;;;;;;13.30;78.70;;;;;;5038802;28;93599;-68
2021/05/22 09:49:32;;;;;;;;;;;13.30;78.70;;;;;;5042813;28;94382;-67
2021/05/22 09:52:01;;;;;;;;;;;13.30;78.60;;;;;;5037710;28;93635;-67
2021/05/22 09:54:45;;;;;;;;;;;13.30;78.70;;;;;;5038941;28;93983;-68
2021/05/22 09:57:14;;;;;;;;;;;13.30;78.90;;;;;;5035692;28;92248;-67
2021/05/22 09:59:40;;;;;;;;;;;13.30;78.80;;;;;;5037965;28;93864;-68
2021/05/22 10:02:05;;;;;;;;;;;13.30;78.70;;;;;;5036305;28;93405;-68
2021/05/22 10:04:31;;;;;;;;;;;13.30;78.70;;;;;;5037253;28;92240;-67
2021/05/22 10:06:57;;;;;;;;;;;13.30;78.80;;;;;;5036090;28;93919;-68
2021/05/22 10:09:24;;;;;;;;;;;13.30;78.60;;;;;;5034754;28;94836;-68
2021/05/22 10:11:59;;;;;;;;;;;13.40;78.70;;;;;;5042979;28;93188;-66
2021/05/22 10:14:25;;;;;;;;;;;13.40;79.00;;;;;;5037670;28;94542;-67
2021/05/22 10:16:51;;;;;;;;;;;13.30;78.60;;;;;;5039554;28;93890;-67
2021/05/22 10:19:16;;;;;;;;;;;13.40;78.70;;;;;;5038473;28;93711;-66
2021/05/22 10:21:42;;;;;;;;;;;13.40;78.70;;;;;;5039206;28;93262;-67
2021/05/22 10:24:08;;;;;;;;;;;13.40;78.70;;;;;;5039464;28;91454;-68
2021/05/22 10:26:33;;;;;;;;;;;13.40;78.70;;;;;;5037690;28;92691;-67
2021/05/22 10:28:59;;;;;;;;;;;13.40;78.70;;;;;;5036599;28;92617;-67
2021/05/22 10:31:24;;;;;;;;;;;13.40;78.80;;;;;;5037619;28;93147;-67
2021/05/22 10:33:50;;;;;;;;;;;13.50;78.80;;;;;;5041856;28;93706;-68
2021/05/22 10:36:35;;;;;;;;;;;13.50;78.90;;;;;;5038396;28;92193;-67
2021/05/22 10:39:01;;;;;;;;;;;13.50;78.90;;;;;;5039143;28;92325;-67
2021/05/22 10:41:37;;;;;;;;;;;13.50;79.10;;;;;;5037280;28;94020;-67
2021/05/22 10:44:02;;;;;;;;;;;13.50;79.00;;;;;;5037555;28;92192;-67
2021/05/22 10:46:28;;;;;;;;;;;13.50;79.00;;;;;;5035791;28;92379;-67
2021/05/22 10:49:00;;;;;;;;;;;13.50;79.00;;;;;;5035310;28;93637;-67
2021/05/22 10:51:26;;;;;;;;;;;13.50;79.00;;;;;;5034792;28;92205;-67
2021/05/22 10:53:55;;;;;;;;;;;13.60;79.00;;;;;;5038945;28;92181;-67
2021/05/22 10:56:21;;;;;;;;;;;13.60;79.10;;;;;;5035455;28;93196;-67
2021/05/22 10:58:58;;;;;;;;;;;13.60;79.20;;;;;;5035599;28;92560;-67
2021/05/22 11:01:24;;;;;;;;;;;13.60;79.20;;;;;;5038617;28;93668;-67
2021/05/22 11:04:10;;;;;;;;;;;13.60;79.00;;;;;;5036389;28;93377;-67
2021/05/22 11:06:42;;;;;;;;;;;13.70;79.20;;;;;;5038815;28;94226;-67
2021/05/22 11:11:55;;;;;;;;;;;13.70;79.20;;;;;;5039489;28;92365;-67
2021/05/22 11:14:39;;;;;;;;;;;13.60;79.20;;;;;;5034446;28;92435;-67
2021/05/22 11:17:25;;;;;;;;;;;13.70;79.10;;;;;;5038716;28;93575;-67
2021/05/22 11:19:57;;;;;;;;;;;13.70;79.20;;;;;;5034669;28;94284;-67
2021/05/22 11:22:23;;;;;;;;;;;13.70;79.20;;;;;;5037930;28;93182;-67
2021/05/22 11:25:06;;;;;;;;;;;13.70;79.20;;;;;;5037898;28;92194;-67
2021/05/22 11:27:44;;;;;;;;;;;13.80;79.30;;;;;;5034775;28;93816;-67
2021/05/22 11:30:10;;;;;;;;;;;13.80;79.20;;;;;;5037252;28;94648;-67
2021/05/22 11:32:42;;;;;;;;;;;13.80;79.20;;;;;;5037576;28;92277;-67
2021/05/22 11:35:26;;;;;;;;;;;13.80;79.20;;;;;;5036848;28;92455;-67
2021/05/22 11:37:55;;;;;;;;;;;13.80;79.20;;;;;;5036872;28;94047;-67
2021/05/22 11:40:36;;;;;;;;;;;13.90;79.30;;;;;;5037657;28;92225;-67
2021/05/22 11:43:18;;;;;;;;;;;13.90;79.20;;;;;;5036882;28;92716;-67
2021/05/22 11:45:48;;;;;;;;;;;13.90;79.20;;;;;;5035870;28;92216;-66
2021/05/22 11:48:22;;;;;;;;;;;13.90;79.30;;;;;;5035600;28;93101;-67
2021/05/22 11:50:48;;;;;;;;;;;13.90;79.30;;;;;;5036405;28;92665;-67
2021/05/22 11:53:14;;;;;;;;;;;13.90;79.30;;;;;;5035889;28;92266;-67
2021/05/22 11:55:40;;;;;;;;;;;14.00;79.30;;;;;;5035490;28;93144;-67
2021/05/22 11:58:06;;;;;;;;;;;13.90;79.30;;;;;;5034557;27;93189;-67
2021/05/22 12:00:32;;;;;;;;;;;14.00;79.40;;;;;;5033891;28;92107;-67
2021/05/22 12:02:57;;;;;;;;;;;14.00;79.40;;;;;;5035896;28;92599;-67
2021/05/22 12:05:23;;;;;;;;;;;14.00;79.30;;;;;;5034278;28;91459;-67
2021/05/22 12:07:54;;;;;;;;;;;14.10;79.30;;;;;;5033364;28;92134;-67
2021/05/22 12:10:20;;;;;;;;;;;14.10;79.40;;;;;;5037182;28;94717;-67
2021/05/22 12:12:45;;;;;;;;;;;14.10;79.40;;;;;;5036401;28;93141;-67
2021/05/22 12:15:24;;;;;;;;;;;14.10;79.30;;;;;;5036356;28;93540;-67
2021/05/22 12:17:51;;;;;;;;;;;14.10;79.90;;;;;;5034451;28;94513;-67
2021/05/22 12:20:17;;;;;;;;;;;14.20;79.30;;;;;;5036834;28;92252;-67
2021/05/22 12:22:43;;;;;;;;;;;14.20;79.40;;;;;;5035702;28;92188;-68
2021/05/22 12:25:08;;;;;;;;;;;14.20;79.40;;;;;;5037294;28;92666;-67
2021/05/22 12:27:35;;;;;;;;;;;14.20;79.30;;;;;;5033861;28;92668;-67
2021/05/22 12:30:02;;;;;;;;;;;14.30;79.40;;;;;;5037048;28;92926;-68
2021/05/22 12:32:28;;;;;;;;;;;14.30;79.40;;;;;;5036809;28;92212;-67
2021/05/22 12:34:57;;;;;;;;;;;14.30;79.40;;;;;;5036391;28;92744;-69
2021/05/22 12:37:22;;;;;;;;;;;14.30;79.40;;;;;;5031805;28;94963;-69
2021/05/22 12:39:49;;;;;;;;;;;14.40;79.40;;;;;;5033565;28;92260;-69
2021/05/22 12:42:15;;;;;;;;;;;14.40;79.40;;;;;;5037564;28;93739;-69
2021/05/22 12:44:40;;;;;;;;;;;14.40;79.40;;;;;;5036417;28;92969;-70
2021/05/22 12:47:06;;;;;;;;;;;14.40;79.60;;;;;;5040467;28;92261;-69
2021/05/22 12:49:32;;;;;;;;;;;14.40;79.30;;;;;;5036407;28;93240;-69
2021/05/22 12:51:58;;;;;;;;;;;14.50;79.50;;;;;;5035765;28;92176;-69
2021/05/22 12:54:28;;;;;;;;;;;14.50;79.50;;;;;;5034575;28;93579;-69
2021/05/22 12:56:57;;;;;;;;;;;14.50;79.40;;;;;;5035660;28;92843;-69
2021/05/22 12:59:23;;;;;;;;;;;14.50;79.50;;;;;;5033459;28;92189;-70
2021/05/22 13:02:08;;;;;;;;;;;14.60;79.50;;;;;;5036336;28;94585;-69
2021/05/22 13:04:34;;;;;;;;;;;14.60;79.40;;;;;;5033300;28;92337;-70
2021/05/22 13:06:59;;;;;;;;;;;14.60;79.40;;;;;;5036530;28;92199;-69
2021/05/22 13:09:25;;;;;;;;;;;14.60;79.50;;;;;;5032544;28;92605;-70
2021/05/22 13:12:01;;;;;;;;;;;14.60;79.50;;;;;;5035688;28;92269;-69
2021/05/22 13:14:45;;;;;;;;;;;14.70;79.50;;;;;;5036577;28;93897;-69
2021/05/22 13:17:11;;;;;;;;;;;14.70;79.60;;;;;;5037273;28;94637;-70
2021/05/22 13:19:39;;;;;;;;;;;14.70;79.50;;;;;;5037826;28;91460;-69
2021/05/22 13:22:21;;;;;;;;;;;14.80;79.50;;;;;;5040709;28;92164;-69
2021/05/22 13:25:00;;;;;;;;;;;14.80;79.50;;;;;;5038259;28;92737;-69
2021/05/22 13:27:25;;;;;;;;;;;14.80;79.50;;;;;;5039849;28;93155;-69
2021/05/22 13:29:51;;;;;;;;;;;14.80;79.60;;;;;;5043400;28;92867;-70
2021/05/22 13:32:17;;;;;;;;;;;14.90;79.60;;;;;;5039137;28;92210;-69
2021/05/22 13:34:43;;;;;;;;;;;14.90;79.60;;;;;;5039773;28;92614;-68
2021/05/22 13:37:08;;;;;;;;;;;15.00;79.70;;;;;;5038088;28;93290;-70
2021/05/22 13:39:34;;;;;;;;;;;15.00;79.70;;;;;;5039095;28;92268;-70
2021/05/22 13:41:59;;;;;;;;;;;15.10;79.80;;;;;;5038678;28;92412;-69
2021/05/22 13:44:27;;;;;;;;;;;15.10;79.60;;;;;;5037762;28;92529;-69
2021/05/22 13:46:52;;;;;;;;;;;15.10;79.60;;;;;;5035747;28;92226;-70
2021/05/22 13:49:18;;;;;;;;;;;15.20;79.60;;;;;;5020865;28;92516;-64
2021/05/22 13:51:45;;;;;;;;;;;16.80;67.60;;;;;;5021755;28;95217;-64
2021/05/22 13:54:12;;;;;;;;;;;17.10;63.30;;;;;;5017516;28;94762;-65
2021/05/22 13:56:37;;;;;;;;;;;17.60;61.40;;;;;;5014666;28;94815;-64
2021/05/22 14:01:47;;;;;;;;;;;18.00;61.40;;;;;;5015679;28;92233;-72
2021/05/22 14:04:12;;;;;;;;;;;18.10;59.60;;;;;;5014430;28;94282;-66
2021/05/22 14:06:38;;;;;;;;;;;18.20;61.00;;;;;;5017528;28;93307;-66
2021/05/22 14:09:05;;;;;;;;;;;18.10;58.40;;;;;;5020530;28;93118;-67
2021/05/22 14:11:30;;;;;;;;;;;18.30;57.20;;;;;;5018149;28;93371;-67
2021/05/22 14:13:56;;;;;;;;;;;18.30;57.60;;;;;;5021535;28;92198;-65
2021/05/22 14:16:22;;;;;;;;;;;18.10;58.00;;;;;;5016368;28;93563;-61
2021/05/22 14:18:47;;;;;;;;;;;18.20;58.40;;;;;;5017376;28;92202;-66
2021/05/22 14:21:13;;;;;;;;;;;18.00;57.50;;;;;;5016616;28;92421;-68
2021/05/22 14:23:38;;;;;;;;;;;18.40;57.90;;;;;;5015681;28;93350;-69